Orbital elements of FENGYUN 1C DEB
| Launched | 9 May 1999 |
| Flight ended | – |
| Launch site | Taiyuan Space Center, PRC |
| Owner | People's Republic of China |
| NORAD ID | 30332 |
| Date fetched |
Epoch osculation |
Inc. [°] |
Ecc. | RA asc node [hr] |
Arg Peri. [°] |
Mean anom [°] |
Mean motion [rev/day] |
Abs. mag |
| Date fetched |
Epoch osculation |
Inc. [°] |
Ecc. | RA asc node [hr] |
Arg Peri. [°] |
Mean anom [°] |
Mean motion [rev/day] |
Abs. mag |
| 2026 May 01 17:56 | 2026 Apr 30 12:47:41 | 99.7341 | 0.01781 | 6.6769 | 102.4182 | 22.4902 | 13.76869 | – |
| 2026 Apr 30 17:56 | 2026 Apr 30 12:47:41 | 99.7341 | 0.01781 | 6.6769 | 102.4182 | 22.4902 | 13.76869 | – |
| 2026 Apr 29 17:57 | 2026 Apr 24 12:03:15 | 99.7336 | 0.01780 | 6.2654 | 118.0114 | 22.4902 | 13.76869 | – |
| 2026 Apr 28 17:56 | 2026 Apr 24 12:03:15 | 99.7336 | 0.01780 | 6.2654 | 118.0114 | 22.4902 | 13.76869 | – |
| 2026 Apr 27 17:58 | 2026 Apr 24 12:03:15 | 99.7336 | 0.01780 | 6.2654 | 118.0114 | 22.4902 | 13.76869 | – |
| 2026 Apr 26 17:58 | 2026 Apr 24 12:03:15 | 99.7336 | 0.01780 | 6.2654 | 118.0114 | 22.4902 | 13.76869 | – |
| 2026 Apr 25 17:58 | 2026 Apr 24 12:03:15 | 99.7336 | 0.01780 | 6.2654 | 118.0114 | 22.4902 | 13.76869 | – |
| 2026 Apr 24 17:59 | 2026 Apr 24 12:03:15 | 99.7336 | 0.01780 | 6.2654 | 118.0114 | 22.4902 | 13.76869 | – |
| 2026 Apr 23 17:57 | 2026 Apr 19 04:12:50 | 99.7335 | 0.01778 | 5.9020 | 131.8027 | 22.4902 | 13.76869 | – |
| 2026 Apr 22 17:57 | 2026 Apr 19 04:12:50 | 99.7335 | 0.01778 | 5.9020 | 131.8027 | 22.4902 | 13.76869 | – |
| 2026 Apr 21 17:57 | 2026 Apr 19 04:12:50 | 99.7335 | 0.01778 | 5.9020 | 131.8027 | 22.4902 | 13.76869 | – |
| 2026 Apr 20 17:57 | 2026 Apr 19 04:12:50 | 99.7335 | 0.01778 | 5.9020 | 131.8027 | 22.4902 | 13.76869 | – |
| 2026 Apr 19 17:58 | 2026 Apr 19 04:12:50 | 99.7335 | 0.01778 | 5.9020 | 131.8027 | 22.4902 | 13.76869 | – |
| 2026 Apr 18 17:56 | 2026 Apr 12 20:43:30 | 99.7328 | 0.01776 | 5.4713 | 148.1599 | 22.4902 | 13.76869 | – |
| 2026 Apr 16 17:57 | 2026 Apr 12 20:43:30 | 99.7328 | 0.01776 | 5.4713 | 148.1599 | 22.4902 | 13.76869 | – |
| 2026 Apr 14 17:57 | 2026 Apr 12 20:43:30 | 99.7328 | 0.01776 | 5.4713 | 148.1599 | 22.4902 | 13.76869 | – |
| 2026 Apr 13 17:57 | 2026 Apr 12 20:43:30 | 99.7328 | 0.01776 | 5.4713 | 148.1599 | 22.4902 | 13.76869 | – |
| 2026 Apr 12 17:57 | 2026 Apr 08 10:37:49 | 99.7325 | 0.01774 | 5.1698 | 159.6309 | 22.4902 | 13.76869 | – |
| 2026 Apr 11 17:57 | 2026 Apr 08 10:37:49 | 99.7325 | 0.01774 | 5.1698 | 159.6309 | 22.4902 | 13.76869 | – |
| 2026 Apr 10 17:58 | 2026 Apr 08 10:37:49 | 99.7325 | 0.01774 | 5.1698 | 159.6309 | 22.4902 | 13.76869 | – |
| 2026 Apr 09 18:01 | 2026 Apr 08 10:37:49 | 99.7325 | 0.01774 | 5.1698 | 159.6309 | 22.4902 | 13.76869 | – |
| 2026 Apr 08 17:57 | 2026 Apr 08 10:37:49 | 99.7325 | 0.01774 | 5.1698 | 159.6309 | 22.4902 | 13.76869 | – |
| 2026 Apr 07 17:57 | 2026 Apr 02 04:06:38 | 99.7319 | 0.01772 | 4.7420 | 175.9185 | 22.4902 | 13.76869 | – |
| 2026 Apr 06 17:57 | 2026 Apr 02 04:06:38 | 99.7319 | 0.01772 | 4.7420 | 175.9185 | 22.4902 | 13.76869 | – |
| 2026 Apr 05 17:56 | 2026 Apr 02 04:06:38 | 99.7319 | 0.01772 | 4.7420 | 175.9185 | 22.4902 | 13.76869 | – |
| 2026 Apr 04 17:57 | 2026 Apr 02 04:06:38 | 99.7319 | 0.01772 | 4.7420 | 175.9185 | 22.4902 | 13.76869 | – |